Time;durP1;ratioP1;P1;durP2;ratioP2;P2;SDS_P1;SDS_P2;PMS_P1;PMS_P2;Temp;Humidity;BMP_temperature;BMP_pressure;BME280_temperature;BME280_humidity;BME280_pressure;Samples;Min_cycle;Max_cycle;Signal;HPM_P1;HPM_P2
2024/03/01 00:01:34;;;;;;;24.25;8.13;;;;;;;;;;5010271;28;20291;-70
2024/03/01 00:03:59;;;;;;;21.58;10.82;;;;;;;;;;4972945;28;1070621;-70
2024/03/01 00:06:25;;;;;;;33.73;10.60;;;;;;;;;;5009765;28;20033;-70
2024/03/01 00:08:50;;;;;;;26.37;8.17;;;;;;;;;;5006055;28;20281;-70
2024/03/01 00:11:15;;;;;;;19.98;8.00;;;;;;;;;;5001375;28;20280;-70
2024/03/01 00:13:41;;;;;;;11.67;5.87;;;;;;;;;;5002003;28;20061;-70
2024/03/01 00:16:06;;;;;;;12.85;6.68;;;;;;;;;;5009408;28;20620;-70
2024/03/01 00:18:31;;;;;;;20.38;9.32;;;;;;;;;;5002345;28;20026;-70
2024/03/01 00:20:57;;;;;;;19.63;8.50;;;;;;;;;;5006773;28;20032;-69
2024/03/01 00:23:22;;;;;;;16.60;7.03;;;;;;;;;;5008294;28;20633;-70
2024/03/01 00:25:47;;;;;;;19.93;8.13;;;;;;;;;;5008008;28;20022;-69
2024/03/01 00:28:13;;;;;;;15.00;6.60;;;;;;;;;;5001649;28;20344;-70
2024/03/01 00:30:38;;;;;;;10.43;5.00;;;;;;;;;;5007262;28;20257;-69
2024/03/01 00:33:03;;;;;;;25.30;9.85;;;;;;;;;;5010104;28;20261;-70
2024/03/01 00:35:29;;;;;;;30.42;11.85;;;;;;;;;;5009200;28;20029;-70
2024/03/01 00:37:54;;;;;;;25.83;10.57;;;;;;;;;;5008282;28;20018;-69
2024/03/01 00:40:19;;;;;;;35.22;14.15;;;;;;;;;;5009706;28;20047;-69
2024/03/01 00:42:44;;;;;;;17.83;9.33;;;;;;;;;;5006865;28;20026;-70
2024/03/01 00:45:09;;;;;;;10.67;5.37;;;;;;;;;;4996866;28;20755;-70
2024/03/01 00:47:34;;;;;;;20.50;9.33;;;;;;;;;;5006515;28;20272;-69
2024/03/01 00:50:00;;;;;;;22.63;8.40;;;;;;;;;;5010018;28;20257;-70
2024/03/01 00:52:25;;;;;;;16.48;7.57;;;;;;;;;;5009475;28;20350;-70
2024/03/01 00:54:50;;;;;;;22.23;9.23;;;;;;;;;;5004920;28;20370;-69
2024/03/01 00:57:16;;;;;;;24.47;10.73;;;;;;;;;;5007347;28;20416;-70
2024/03/01 00:59:41;;;;;;;25.85;10.73;;;;;;;;;;5009943;28;20260;-70
2024/03/01 01:02:08;;;;;;;15.98;6.07;;;;;;;;;;5003111;28;20030;-70
2024/03/01 01:04:33;;;;;;;27.27;12.45;;;;;;;;;;5003570;28;20492;-70
2024/03/01 01:06:58;;;;;;;25.33;10.60;;;;;;;;;;4998113;28;20092;-69
2024/03/01 01:09:24;;;;;;;16.63;7.23;;;;;;;;;;5010026;28;20017;-70
2024/03/01 01:11:49;;;;;;;21.97;9.00;;;;;;;;;;5009784;28;20347;-69
2024/03/01 01:14:14;;;;;;;26.97;10.53;;;;;;;;;;4997636;28;20261;-69
2024/03/01 01:16:39;;;;;;;35.22;12.20;;;;;;;;;;5008850;28;20256;-69
2024/03/01 01:19:04;;;;;;;27.40;11.50;;;;;;;;;;5004963;28;20030;-69
2024/03/01 01:21:32;;;;;;;18.13;6.70;;;;;;;;;;5004086;28;20287;-70
2024/03/01 01:23:57;;;;;;;24.13;9.52;;;;;;;;;;5009137;28;20010;-70
2024/03/01 01:26:22;;;;;;;13.73;7.00;;;;;;;;;;5009163;28;20104;-69
2024/03/01 01:28:51;;;;;;;33.97;13.63;;;;;;;;;;5009615;28;20026;-69
2024/03/01 01:31:16;;;;;;;25.30;9.60;;;;;;;;;;5008409;28;20269;-69
2024/03/01 01:33:41;;;;;;;15.83;5.80;;;;;;;;;;5004272;28;20014;-69
2024/03/01 01:36:07;;;;;;;15.80;7.60;;;;;;;;;;5002604;28;20301;-70
2024/03/01 01:38:32;;;;;;;31.27;11.97;;;;;;;;;;4999557;28;20397;-70
2024/03/01 01:40:57;;;;;;;24.98;10.95;;;;;;;;;;5008793;28;20272;-70
2024/03/01 01:43:23;;;;;;;29.45;13.18;;;;;;;;;;5009718;28;20022;-70
2024/03/01 01:45:48;;;;;;;22.38;9.23;;;;;;;;;;5004752;28;20037;-69
2024/03/01 01:48:13;;;;;;;16.70;7.20;;;;;;;;;;5003920;28;20026;-70
2024/03/01 01:50:39;;;;;;;32.85;12.95;;;;;;;;;;5009983;28;20724;-70
2024/03/01 01:53:04;;;;;;;27.02;12.98;;;;;;;;;;5004861;28;20282;-69
2024/03/01 01:55:30;;;;;;;28.27;10.05;;;;;;;;;;5000210;28;20028;-69
2024/03/01 01:57:56;;;;;;;35.75;11.57;;;;;;;;;;5009416;28;20416;-69
2024/03/01 02:00:21;;;;;;;38.88;13.52;;;;;;;;;;5007599;28;20053;-69
2024/03/01 02:02:50;;;;;;;28.98;10.85;;;;;;;;;;5009664;28;20033;-69
2024/03/01 02:05:16;;;;;;;24.00;9.52;;;;;;;;;;5008200;28;20179;-70
2024/03/01 02:07:41;;;;;;;19.33;7.22;;;;;;;;;;5009242;28;20385;-69
2024/03/01 02:10:16;;;;;;;25.67;9.17;;;;;;;;;;5007712;28;20115;-69
2024/03/01 02:12:50;;;;;;;13.10;7.13;;;;;;;;;;5011366;28;20359;-69
2024/03/01 02:15:16;;;;;;;26.30;8.23;;;;;;;;;;5005731;28;20027;-70
2024/03/01 02:17:41;;;;;;;17.03;7.00;;;;;;;;;;5008379;28;20081;-70
2024/03/01 02:20:06;;;;;;;23.23;9.27;;;;;;;;;;4997430;28;20345;-69
2024/03/01 02:22:32;;;;;;;13.75;6.78;;;;;;;;;;5007709;28;20277;-69
2024/03/01 02:24:57;;;;;;;32.70;11.70;;;;;;;;;;5007740;28;20014;-69
2024/03/01 02:27:22;;;;;;;18.07;7.10;;;;;;;;;;5004646;28;20552;-69
2024/03/01 02:29:47;;;;;;;25.97;9.97;;;;;;;;;;5007683;28;20263;-69
2024/03/01 02:32:12;;;;;;;20.73;9.33;;;;;;;;;;5008925;28;20256;-69
2024/03/01 02:34:37;;;;;;;22.40;9.90;;;;;;;;;;5008820;28;20616;-70
2024/03/01 02:37:03;;;;;;;22.43;10.40;;;;;;;;;;5008798;28;20263;-69
2024/03/01 02:39:28;;;;;;;23.97;10.23;;;;;;;;;;5007795;28;20620;-69
2024/03/01 02:41:53;;;;;;;22.03;8.50;;;;;;;;;;4991044;28;20293;-69
2024/03/01 02:44:18;;;;;;;21.25;9.40;;;;;;;;;;5009890;28;20338;-70
2024/03/01 02:46:44;;;;;;;15.30;6.93;;;;;;;;;;5004503;28;20026;-69
2024/03/01 02:49:09;;;;;;;20.05;7.85;;;;;;;;;;5005243;28;20023;-69
2024/03/01 02:51:34;;;;;;;31.95;13.82;;;;;;;;;;5012212;28;20021;-70
2024/03/01 02:54:00;;;;;;;21.80;9.40;;;;;;;;;;5012298;28;20029;-69
2024/03/01 02:56:25;;;;;;;16.97;8.37;;;;;;;;;;5011729;28;20030;-70
2024/03/01 02:58:50;;;;;;;21.87;8.07;;;;;;;;;;5008750;28;20644;-70
2024/03/01 03:01:16;;;;;;;25.00;8.30;;;;;;;;;;5005477;28;20740;-70
2024/03/01 03:03:41;;;;;;;23.45;6.47;;;;;;;;;;5012027;28;20620;-70
2024/03/01 03:06:06;;;;;;;13.50;5.40;;;;;;;;;;5011179;28;20097;-70
2024/03/01 03:08:31;;;;;;;16.50;5.60;;;;;;;;;;5011424;28;20624;-70
2024/03/01 03:10:57;;;;;;;15.73;7.38;;;;;;;;;;5010530;28;20320;-69
2024/03/01 03:13:22;;;;;;;17.67;8.37;;;;;;;;;;5010895;28;20049;-70
2024/03/01 03:15:47;;;;;;;16.97;8.03;;;;;;;;;;5006702;28;20646;-70
2024/03/01 03:18:13;;;;;;;16.20;7.28;;;;;;;;;;5007366;28;20264;-70
2024/03/01 03:20:38;;;;;;;11.07;5.68;;;;;;;;;;5008862;28;20370;-69
2024/03/01 03:23:04;;;;;;;22.67;9.00;;;;;;;;;;5012069;28;20468;-69
2024/03/01 03:25:29;;;;;;;20.13;8.40;;;;;;;;;;5006607;28;20497;-70
2024/03/01 03:27:54;;;;;;;10.43;4.18;;;;;;;;;;5011118;28;20018;-70
2024/03/01 03:30:19;;;;;;;17.57;8.60;;;;;;;;;;5010711;28;20033;-70
2024/03/01 03:32:44;;;;;;;31.30;8.97;;;;;;;;;;5011745;28;20257;-69
2024/03/01 03:35:10;;;;;;;23.67;10.50;;;;;;;;;;5007265;28;20281;-69
2024/03/01 03:37:35;;;;;;;14.15;6.35;;;;;;;;;;4997949;28;20084;-69
2024/03/01 03:40:00;;;;;;;23.52;7.85;;;;;;;;;;5010971;28;20134;-70
2024/03/01 03:42:25;;;;;;;20.65;9.95;;;;;;;;;;5009056;28;20070;-70
2024/03/01 03:44:51;;;;;;;29.90;14.77;;;;;;;;;;5008276;28;20018;-69
2024/03/01 03:47:16;;;;;;;21.45;8.57;;;;;;;;;;5009276;28;20032;-70
2024/03/01 03:49:45;;;;;;;23.20;10.05;;;;;;;;;;5009748;28;20045;-70
2024/03/01 03:52:10;;;;;;;14.18;5.43;;;;;;;;;;5009012;28;20041;-70
2024/03/01 03:54:37;;;;;;;15.70;7.03;;;;;;;;;;5009836;28;20477;-70
2024/03/01 03:57:03;;;;;;;15.02;6.97;;;;;;;;;;5005772;28;20619;-70
2024/03/01 03:59:28;;;;;;;22.85;9.00;;;;;;;;;;5009047;28;20026;-70
2024/03/01 04:01:53;;;;;;;22.67;10.07;;;;;;;;;;5010410;28;20041;-70
2024/03/01 04:04:18;;;;;;;19.17;6.83;;;;;;;;;;5010559;28;20613;-70
2024/03/01 04:06:43;;;;;;;18.55;9.10;;;;;;;;;;5010656;28;20297;-70
2024/03/01 04:09:10;;;;;;;10.00;4.33;;;;;;;;;;5008302;28;20048;-70
2024/03/01 04:11:35;;;;;;;15.35;7.82;;;;;;;;;;5008335;28;20340;-69
2024/03/01 04:14:00;;;;;;;14.10;6.32;;;;;;;;;;5009935;28;20113;-70
2024/03/01 04:16:25;;;;;;;25.47;10.77;;;;;;;;;;5001047;28;20527;-69
2024/03/01 04:18:51;;;;;;;19.40;7.65;;;;;;;;;;5005028;28;20347;-69
2024/03/01 04:21:16;;;;;;;23.17;8.80;;;;;;;;;;5008852;28;20064;-69
2024/03/01 04:23:42;;;;;;;16.63;7.77;;;;;;;;;;5010356;28;20128;-69
2024/03/01 04:26:09;;;;;;;8.68;4.88;;;;;;;;;;5010551;28;20244;-70
2024/03/01 04:28:37;;;;;;;12.73;5.53;;;;;;;;;;5009427;28;20481;-70
2024/03/01 04:31:02;;;;;;;21.50;7.93;;;;;;;;;;5010429;28;20497;-70
2024/03/01 04:33:27;;;;;;;32.85;7.38;;;;;;;;;;5010503;28;20028;-69
2024/03/01 04:35:52;;;;;;;12.13;5.65;;;;;;;;;;5008133;28;20025;-69
2024/03/01 04:38:18;;;;;;;18.92;7.57;;;;;;;;;;5000321;28;20041;-70
2024/03/01 04:40:43;;;;;;;16.77;6.07;;;;;;;;;;5008788;28;20018;-70
2024/03/01 04:43:08;;;;;;;25.33;9.52;;;;;;;;;;5007537;28;20010;-70
2024/03/01 04:45:34;;;;;;;19.02;7.28;;;;;;;;;;5009998;28;20061;-70
2024/03/01 04:47:59;;;;;;;18.02;8.52;;;;;;;;;;5009692;28;20025;-70
2024/03/01 04:50:25;;;;;;;16.60;7.28;;;;;;;;;;5008145;28;20025;-70
2024/03/01 04:52:50;;;;;;;15.35;6.85;;;;;;;;;;5010155;28;20104;-70
2024/03/01 04:55:15;;;;;;;13.07;5.80;;;;;;;;;;5009537;28;20022;-70
2024/03/01 04:57:40;;;;;;;10.23;5.03;;;;;;;;;;5002674;28;20274;-70
2024/03/01 05:00:11;;;;;;;12.75;5.95;;;;;;;;;;4997100;28;20034;-70
2024/03/01 05:02:37;;;;;;;20.25;4.82;;;;;;;;;;5009355;28;20749;-69
2024/03/01 05:05:03;;;;;;;19.75;7.90;;;;;;;;;;5007664;28;20108;-70
2024/03/01 05:07:28;;;;;;;14.68;5.20;;;;;;;;;;5005680;28;20246;-70
2024/03/01 05:09:53;;;;;;;17.57;8.00;;;;;;;;;;5004944;28;20504;-68
2024/03/01 05:12:18;;;;;;;18.35;5.72;;;;;;;;;;5005436;28;20284;-68
2024/03/01 05:14:43;;;;;;;17.40;7.30;;;;;;;;;;5010249;28;20097;-69
2024/03/01 05:17:09;;;;;;;19.42;8.25;;;;;;;;;;5006807;28;20810;-69
2024/03/01 05:19:38;;;;;;;18.05;7.82;;;;;;;;;;5004293;28;20084;-69
2024/03/01 05:22:04;;;;;;;10.70;4.88;;;;;;;;;;5008548;28;20105;-69
2024/03/01 05:24:29;;;;;;;12.77;5.72;;;;;;;;;;5003782;28;20110;-69
2024/03/01 05:26:54;;;;;;;13.60;6.87;;;;;;;;;;5002165;28;20026;-69
2024/03/01 05:29:20;;;;;;;13.00;6.03;;;;;;;;;;5009054;28;20706;-70
2024/03/01 05:31:48;;;;;;;17.00;6.60;;;;;;;;;;5009046;28;20042;-70
2024/03/01 05:34:13;;;;;;;12.27;5.25;;;;;;;;;;5000538;28;20029;-70
2024/03/01 05:36:38;;;;;;;14.75;6.03;;;;;;;;;;5008877;28;20358;-70
2024/03/01 05:39:15;;;;;;;14.60;5.97;;;;;;;;;;5003822;28;20077;-70
2024/03/01 05:41:41;;;;;;;9.82;3.92;;;;;;;;;;5007452;28;20372;-70
2024/03/01 05:44:08;;;;;;;15.45;7.90;;;;;;;;;;5009500;28;20157;-70
2024/03/01 05:46:33;;;;;;;16.88;6.65;;;;;;;;;;5006788;28;20650;-71
2024/03/01 05:49:00;;;;;;;11.30;4.57;;;;;;;;;;5001097;28;20432;-70
2024/03/01 05:51:25;;;;;;;18.05;5.82;;;;;;;;;;5000353;28;20849;-70
2024/03/01 05:53:50;;;;;;;22.30;9.87;;;;;;;;;;5007207;28;20457;-70
2024/03/01 05:56:18;;;;;;;10.83;4.27;;;;;;;;;;5005280;28;20272;-70
2024/03/01 05:58:45;;;;;;;11.18;5.20;;;;;;;;;;4999399;28;20283;-70
2024/03/01 06:01:10;;;;;;;20.13;5.80;;;;;;;;;;5003328;28;20034;-70
2024/03/01 06:03:35;;;;;;;16.55;5.20;;;;;;;;;;5007251;28;20060;-70
2024/03/01 06:06:01;;;;;;;11.57;4.73;;;;;;;;;;5007091;28;20587;-70
2024/03/01 06:08:26;;;;;;;10.93;5.68;;;;;;;;;;5002378;28;20356;-70
2024/03/01 06:10:52;;;;;;;13.70;5.43;;;;;;;;;;5005930;28;20049;-70
2024/03/01 06:13:17;;;;;;;13.55;6.82;;;;;;;;;;5004771;28;20105;-70
2024/03/01 06:15:42;;;;;;;17.55;7.43;;;;;;;;;;5003996;28;20029;-69
2024/03/01 06:18:07;;;;;;;20.77;10.87;;;;;;;;;;5007762;28;20101;-70
2024/03/01 06:20:33;;;;;;;9.23;4.27;;;;;;;;;;5003128;28;20620;-68
2024/03/01 06:22:58;;;;;;;20.00;8.93;;;;;;;;;;5006862;28;20288;-68
2024/03/01 06:25:23;;;;;;;17.17;7.30;;;;;;;;;;5008567;28;20022;-68
2024/03/01 06:27:49;;;;;;;20.63;6.07;;;;;;;;;;5009443;28;20253;-68
2024/03/01 06:30:14;;;;;;;27.20;10.27;;;;;;;;;;5003817;28;20266;-68
2024/03/01 06:32:43;;;;;;;18.00;6.28;;;;;;;;;;5002144;28;20021;-68
2024/03/01 06:35:08;;;;;;;14.10;3.85;;;;;;;;;;5008989;28;20062;-68
2024/03/01 06:37:35;;;;;;;11.82;5.53;;;;;;;;;;5006645;28;20196;-69
2024/03/01 06:40:05;;;;;;;25.92;10.50;;;;;;;;;;5005056;28;20022;-68
2024/03/01 06:42:30;;;;;;;18.77;9.20;;;;;;;;;;5009664;28;20397;-69
2024/03/01 06:44:55;;;;;;;22.40;7.30;;;;;;;;;;5008077;28;20026;-70
2024/03/01 06:47:20;;;;;;;14.43;6.73;;;;;;;;;;5005185;28;20026;-70
2024/03/01 06:49:46;;;;;;;20.60;8.25;;;;;;;;;;5008983;28;20293;-69
2024/03/01 06:52:11;;;;;;;17.70;7.13;;;;;;;;;;5006403;28;20569;-69
2024/03/01 06:54:36;;;;;;;8.23;4.80;;;;;;;;;;5005675;28;20181;-70
2024/03/01 06:57:01;;;;;;;18.17;6.93;;;;;;;;;;5001505;28;20026;-69
2024/03/01 06:59:26;;;;;;;22.88;10.95;;;;;;;;;;4995515;28;20791;-69
2024/03/01 07:01:51;;;;;;;22.63;9.47;;;;;;;;;;5003840;28;20030;-69
2024/03/01 07:04:17;;;;;;;22.42;10.60;;;;;;;;;;5000193;28;20355;-69
2024/03/01 07:06:42;;;;;;;21.83;7.40;;;;;;;;;;5009038;28;20449;-69
2024/03/01 07:09:07;;;;;;;18.38;7.20;;;;;;;;;;5009147;28;20487;-69
2024/03/01 07:11:33;;;;;;;7.95;2.65;;;;;;;;;;5003133;28;20074;-69
2024/03/01 07:13:58;;;;;;;8.73;4.57;;;;;;;;;;5004561;28;20480;-69
2024/03/01 07:16:23;;;;;;;10.27;4.68;;;;;;;;;;5010493;28;20505;-69
2024/03/01 07:18:48;;;;;;;7.70;4.40;;;;;;;;;;5009259;28;20477;-69
2024/03/01 07:21:13;;;;;;;10.57;5.28;;;;;;;;;;5010608;28;20427;-69
2024/03/01 07:23:39;;;;;;;9.55;3.72;;;;;;;;;;5008631;28;20026;-69
2024/03/01 07:26:04;;;;;;;4.40;2.70;;;;;;;;;;5009536;28;20056;-69
2024/03/01 07:28:29;;;;;;;4.95;2.40;;;;;;;;;;5008230;28;20791;-69
2024/03/01 07:30:54;;;;;;;7.10;3.77;;;;;;;;;;5008006;28;20022;-69
2024/03/01 07:33:20;;;;;;;4.67;2.87;;;;;;;;;;5007994;28;20288;-69
2024/03/01 07:35:45;;;;;;;6.93;3.67;;;;;;;;;;5005029;28;20252;-69
2024/03/01 07:38:10;;;;;;;7.13;3.90;;;;;;;;;;5008939;28;20068;-69
2024/03/01 07:40:35;;;;;;;7.90;3.60;;;;;;;;;;5011693;28;20279;-69
2024/03/01 07:43:01;;;;;;;7.95;3.58;;;;;;;;;;5010826;28;20018;-69
2024/03/01 07:45:26;;;;;;;5.65;2.83;;;;;;;;;;5009839;28;20374;-69
2024/03/01 07:47:51;;;;;;;7.40;2.83;;;;;;;;;;5011308;28;20481;-69
2024/03/01 07:50:17;;;;;;;5.35;2.47;;;;;;;;;;5010413;28;20390;-69
2024/03/01 07:52:42;;;;;;;5.40;2.80;;;;;;;;;;5004232;28;20036;-69
2024/03/01 07:55:07;;;;;;;6.15;3.35;;;;;;;;;;5004994;28;20018;-69
2024/03/01 07:57:33;;;;;;;3.92;2.40;;;;;;;;;;4995764;28;20057;-69
2024/03/01 07:59:58;;;;;;;2.47;1.67;;;;;;;;;;5007845;28;20069;-69
2024/03/01 08:02:23;;;;;;;5.03;3.05;;;;;;;;;;5010328;28;20532;-69
2024/03/01 08:04:48;;;;;;;4.27;2.60;;;;;;;;;;5010694;28;20072;-69
2024/03/01 08:07:14;;;;;;;5.55;3.17;;;;;;;;;;5008854;28;20265;-69
2024/03/01 08:09:42;;;;;;;5.18;3.53;;;;;;;;;;5011066;28;20044;-69
2024/03/01 08:12:13;;;;;;;4.13;2.75;;;;;;;;;;5009509;28;20480;-69
2024/03/01 08:14:38;;;;;;;;;;;;;;;;;;5005667;28;20030;-69
2024/03/01 08:17:04;;;;;;;4.57;2.30;;;;;;;;;;5007649;28;19920;-69
2024/03/01 08:19:32;;;;;;;4.95;2.53;;;;;;;;;;5008569;28;20030;-69
2024/03/01 08:22:12;;;;;;;5.65;3.25;;;;;;;;;;5005485;28;20014;-69
2024/03/01 08:24:39;;;;;;;4.32;2.60;;;;;;;;;;5009039;28;20045;-70
2024/03/01 08:27:05;;;;;;;7.70;3.42;;;;;;;;;;5008290;28;20121;-70
2024/03/01 08:29:31;;;;;;;5.65;3.55;;;;;;;;;;5009625;28;20022;-70
2024/03/01 08:31:56;;;;;;;4.60;2.90;;;;;;;;;;5006406;28;20442;-70
2024/03/01 08:34:25;;;;;;;6.38;3.10;;;;;;;;;;5009831;28;20097;-69
2024/03/01 08:36:52;;;;;;;6.82;2.58;;;;;;;;;;5008040;28;20053;-69
2024/03/01 08:39:24;;;;;;;6.82;3.40;;;;;;;;;;5004645;28;20424;-69
2024/03/01 08:41:50;;;;;;;5.18;3.05;;;;;;;;;;5000391;28;20026;-73
2024/03/01 08:44:34;;;;;;;6.00;3.10;;;;;;;;;;5002956;28;20080;-69
2024/03/01 08:46:59;;;;;;;5.28;2.85;;;;;;;;;;5000983;28;20038;-69
2024/03/01 08:49:28;;;;;;;8.82;3.13;;;;;;;;;;5003478;28;20029;-69
2024/03/01 08:51:53;;;;;;;6.63;2.78;;;;;;;;;;5007466;28;20555;-69
2024/03/01 08:54:22;;;;;;;4.38;2.63;;;;;;;;;;5007506;28;20022;-69
2024/03/01 08:56:58;;;;;;;8.15;2.80;;;;;;;;;;5001117;28;20555;-69
2024/03/01 08:59:32;;;;;;;4.63;2.78;;;;;;;;;;4998949;28;20087;-70
2024/03/01 09:01:58;;;;;;;2.70;2.10;;;;;;;;;;5008064;28;20583;-69
2024/03/01 09:04:27;;;;;;;5.50;3.05;;;;;;;;;;5007083;28;20061;-69
2024/03/01 09:07:03;;;;;;;4.73;2.83;;;;;;;;;;5005103;28;20105;-69
2024/03/01 09:09:28;;;;;;;2.90;1.63;;;;;;;;;;5001858;28;20027;-69
2024/03/01 09:11:54;;;;;;;5.90;2.83;;;;;;;;;;5004348;28;20022;-69
2024/03/01 09:14:27;;;;;;;5.47;2.67;;;;;;;;;;5003522;28;20030;-71
2024/03/01 09:16:53;;;;;;;4.70;2.17;;;;;;;;;;5004543;28;20113;-71
2024/03/01 09:19:20;;;;;;;8.07;2.75;;;;;;;;;;5006573;28;20113;-70
2024/03/01 09:21:46;;;;;;;9.38;2.53;;;;;;;;;;5001420;28;20542;-70
2024/03/01 09:24:13;;;;;;;9.30;3.22;;;;;;;;;;5004775;28;20022;-69
2024/03/01 09:26:38;;;;;;;4.47;2.45;;;;;;;;;;5005106;28;20030;-69
2024/03/01 09:29:04;;;;;;;6.70;2.45;;;;;;;;;;4999637;28;20100;-69
2024/03/01 09:31:31;;;;;;;3.60;2.08;;;;;;;;;;5004403;28;20072;-69
2024/03/01 09:33:57;;;;;;;4.90;2.72;;;;;;;;;;5005711;28;20471;-69
2024/03/01 09:36:22;;;;;;;8.05;2.60;;;;;;;;;;5001962;28;20045;-69
2024/03/01 09:38:50;;;;;;;6.30;2.70;;;;;;;;;;4990731;28;20100;-69
2024/03/01 09:41:16;;;;;;;7.68;3.47;;;;;;;;;;5001982;28;20288;-69
2024/03/01 09:43:54;;;;;;;5.33;2.00;;;;;;;;;;5003825;28;20225;-69
2024/03/01 09:46:25;;;;;;;5.75;2.97;;;;;;;;;;5000755;28;20737;-69
2024/03/01 09:48:59;;;;;;;8.85;3.30;;;;;;;;;;5004374;28;20018;-69
2024/03/01 09:51:30;;;;;;;4.80;2.05;;;;;;;;;;5004744;28;20400;-70
2024/03/01 09:54:11;;;;;;;10.57;2.70;;;;;;;;;;5009743;28;20030;-70
2024/03/01 09:56:55;;;;;;;7.93;3.38;;;;;;;;;;5005137;28;20057;-70
2024/03/01 09:59:38;;;;;;;6.28;3.13;;;;;;;;;;5003112;28;20129;-70
2024/03/01 10:02:10;;;;;;;4.32;2.22;;;;;;;;;;5010995;28;20022;-70
2024/03/01 10:04:48;;;;;;;6.32;3.53;;;;;;;;;;5003103;28;20087;-70
2024/03/01 10:07:35;;;;;;;6.95;3.30;;;;;;;;;;5011709;28;20654;-71
2024/03/01 10:10:19;;;;;;;6.00;2.70;;;;;;;;;;5004146;28;20029;-71
2024/03/01 10:12:47;;;;;;;6.00;3.08;;;;;;;;;;5006440;28;20033;-71
2024/03/01 10:15:17;;;;;;;4.30;2.90;;;;;;;;;;5011895;28;20021;-71
2024/03/01 10:18:15;;;;;;;6.13;2.80;;;;;;;;;;5008493;28;20034;-71
2024/03/01 10:20:59;;;;;;;8.77;3.22;;;;;;;;;;4955241;28;20036;-71
2024/03/01 10:23:29;;;;;;;3.13;1.70;;;;;;;;;;5001332;28;20034;-71
2024/03/01 10:26:00;;;;;;;7.38;1.63;;;;;;;;;;5003525;28;20076;-71
2024/03/01 10:28:25;;;;;;;;;;;;;;;;;;5010556;28;20026;-71
2024/03/01 10:31:06;;;;;;;7.00;3.03;;;;;;;;;;5008946;28;20109;-71
2024/03/01 10:33:51;;;;;;;5.03;2.70;;;;;;;;;;5006593;28;20252;-71
2024/03/01 10:36:20;;;;;;;5.43;2.30;;;;;;;;;;5011499;28;20040;-71
2024/03/01 10:38:50;;;;;;;4.95;3.00;;;;;;;;;;5003677;28;20052;-71
2024/03/01 10:41:38;;;;;;;5.35;3.20;;;;;;;;;;4998688;28;20439;-71
2024/03/01 10:44:12;;;;;;;5.15;2.78;;;;;;;;;;5004508;28;20026;-72
2024/03/01 10:46:42;;;;;;;4.55;2.63;;;;;;;;;;5005739;28;20040;-71
2024/03/01 10:49:13;;;;;;;5.78;2.97;;;;;;;;;;5004871;28;20022;-71
2024/03/01 10:51:42;;;;;;;9.75;3.08;;;;;;;;;;5005133;28;20097;-71
2024/03/01 10:54:07;;;;;;;2.60;1.83;;;;;;;;;;5003439;28;20061;-71
2024/03/01 10:56:32;;;;;;;6.63;3.38;;;;;;;;;;5009493;28;20027;-72
2024/03/01 10:59:01;;;;;;;2.78;2.15;;;;;;;;;;5006475;28;20042;-70
2024/03/01 11:01:40;;;;;;;7.13;3.30;;;;;;;;;;5005549;28;20030;-71
2024/03/01 11:04:14;;;;;;;6.57;3.00;;;;;;;;;;5000607;28;20019;-71
2024/03/01 11:07:08;;;;;;;7.00;3.38;;;;;;;;;;5007217;28;20037;-70
2024/03/01 11:09:40;;;;;;;8.60;2.58;;;;;;;;;;4986961;28;20053;-71
2024/03/01 11:12:11;;;;;;;6.07;2.90;;;;;;;;;;5005229;28;20026;-68
2024/03/01 11:14:39;;;;;;;1.42;1.10;;;;;;;;;;5009652;28;20431;-71
2024/03/01 11:17:05;;;;;;;4.60;2.65;;;;;;;;;;5009621;28;20042;-71
2024/03/01 11:19:31;;;;;;;7.68;3.03;;;;;;;;;;5008877;28;20033;-70
2024/03/01 11:22:08;;;;;;;2.95;1.60;;;;;;;;;;4996135;28;20555;-70
2024/03/01 11:24:35;;;;;;;3.78;2.45;;;;;;;;;;5002740;28;21432;-71
2024/03/01 11:27:02;;;;;;;6.53;3.47;;;;;;;;;;5006642;28;20062;-71
2024/03/01 11:29:36;;;;;;;6.00;2.83;;;;;;;;;;5007210;28;20139;-71
2024/03/01 11:32:09;;;;;;;5.63;2.58;;;;;;;;;;5006000;28;20018;-71
2024/03/01 11:34:34;;;;;;;16.05;3.50;;;;;;;;;;5002941;28;20029;-71
2024/03/01 11:37:04;;;;;;;4.07;2.60;;;;;;;;;;5005857;28;20014;-71
2024/03/01 11:39:45;;;;;;;2.88;1.88;;;;;;;;;;5003053;28;20108;-70
2024/03/01 11:42:46;;;;;;;3.30;1.65;;;;;;;;;;5001331;28;20079;-70
2024/03/01 11:45:17;;;;;;;4.32;2.20;;;;;;;;;;4933635;29;20027;-70
2024/03/01 11:48:00;;;;;;;2.55;1.70;;;;;;;;;;4991803;28;20034;-70
2024/03/01 11:50:31;;;;;;;3.20;1.65;;;;;;;;;;4998631;28;20517;-70
2024/03/01 11:52:58;;;;;;;2.75;1.55;;;;;;;;;;5004483;28;20066;-70
2024/03/01 11:55:40;;;;;;;0.55;0.55;;;;;;;;;;5007882;28;20030;-70
2024/03/01 11:58:19;;;;;;;0.95;0.75;;;;;;;;;;5009977;28;20017;-70
2024/03/01 12:01:03;;;;;;;0.67;0.67;;;;;;;;;;5004320;28;20068;-70
2024/03/01 12:03:37;;;;;;;1.77;0.63;;;;;;;;;;5001661;28;20759;-69
2024/03/01 12:06:05;;;;;;;1.20;0.50;;;;;;;;;;5007128;28;20040;-69
2024/03/01 12:08:47;;;;;;;0.82;0.45;;;;;;;;;;5009631;28;20022;-69
2024/03/01 12:11:36;;;;;;;0.80;0.63;;;;;;;;;;5006643;28;20057;-71
2024/03/01 12:14:02;;;;;;;0.20;0.20;;;;;;;;;;5007635;28;20028;-71
2024/03/01 12:16:37;;;;;;;0.20;0.20;;;;;;;;;;5008896;28;20034;-71
2024/03/01 12:19:09;;;;;;;2.55;0.50;;;;;;;;;;5007481;28;20562;-71
2024/03/01 12:21:35;;;;;;;0.32;0.30;;;;;;;;;;5001133;28;20824;-71
2024/03/01 12:24:17;;;;;;;0.40;0.30;;;;;;;;;;4992546;28;20026;-71
2024/03/01 12:27:04;;;;;;;0.57;0.30;;;;;;;;;;5004479;28;20345;-73
2024/03/01 12:29:48;;;;;;;0.43;0.30;;;;;;;;;;5004042;28;20033;-71
2024/03/01 12:32:17;;;;;;;1.33;0.60;;;;;;;;;;5003449;28;20031;-71
2024/03/01 12:35:18;;;;;;;2.08;0.68;;;;;;;;;;4999567;28;20370;-71
2024/03/01 12:37:43;;;;;;;1.75;1.20;;;;;;;;;;4965570;28;20034;-71
2024/03/01 12:40:21;;;;;;;0.25;0.25;;;;;;;;;;4997384;28;20037;-71
2024/03/01 12:42:46;;;;;;;1.17;0.47;;;;;;;;;;5007233;28;20026;-71
2024/03/01 12:45:34;;;;;;;0.50;0.28;;;;;;;;;;5006072;28;20062;-71
2024/03/01 12:48:14;;;;;;;1.63;0.52;;;;;;;;;;5000566;28;20023;-69
2024/03/01 12:50:47;;;;;;;1.40;0.63;;;;;;;;;;4996937;28;20049;-70
2024/03/01 12:53:12;;;;;;;0.88;0.70;;;;;;;;;;5009966;28;20022;-70
2024/03/01 12:55:40;;;;;;;3.83;0.85;;;;;;;;;;5008807;28;20033;-70
2024/03/01 12:58:29;;;;;;;2.30;0.95;;;;;;;;;;5006662;28;20145;-70
2024/03/01 13:01:00;;;;;;;1.67;0.95;;;;;;;;;;4990593;28;20037;-70
2024/03/01 13:03:25;;;;;;;4.00;1.10;;;;;;;;;;5005103;28;20026;-70
2024/03/01 13:05:51;;;;;;;1.83;0.73;;;;;;;;;;5001778;28;20064;-70
2024/03/01 13:08:20;;;;;;;2.15;0.75;;;;;;;;;;4998941;28;20037;-70
2024/03/01 13:10:45;;;;;;;1.15;0.65;;;;;;;;;;5004287;28;20100;-70
2024/03/01 13:13:40;;;;;;;8.10;0.90;;;;;;;;;;5009279;28;20109;-69
2024/03/01 13:16:15;;;;;;;2.00;0.50;;;;;;;;;;4976141;28;20549;-71
2024/03/01 13:18:59;;;;;;;2.20;0.80;;;;;;;;;;5005739;28;20037;-70
2024/03/01 13:21:27;;;;;;;1.17;0.65;;;;;;;;;;5006123;28;20026;-71
2024/03/01 13:23:58;;;;;;;6.50;0.95;;;;;;;;;;5004916;28;20473;-70
2024/03/01 13:26:24;;;;;;;3.58;0.80;;;;;;;;;;5002628;28;20034;-70
2024/03/01 13:29:09;;;;;;;0.57;0.50;;;;;;;;;;5006574;28;20025;-69
2024/03/01 13:31:40;;;;;;;2.25;0.80;;;;;;;;;;5001503;28;20045;-70
2024/03/01 13:34:07;;;;;;;2.60;0.70;;;;;;;;;;5004813;28;20185;-70
2024/03/01 13:36:35;;;;;;;0.43;0.28;;;;;;;;;;5006300;28;20172;-70
2024/03/01 13:39:18;;;;;;;0.38;0.30;;;;;;;;;;5005771;28;20101;-69
2024/03/01 13:41:51;;;;;;;2.65;0.93;;;;;;;;;;5002594;28;20022;-70
2024/03/01 13:44:21;;;;;;;3.67;1.30;;;;;;;;;;5000548;28;20033;-69
2024/03/01 13:46:51;;;;;;;0.90;0.47;;;;;;;;;;4997440;28;20025;-70
2024/03/01 13:49:18;;;;;;;1.23;0.60;;;;;;;;;;5003060;28;20547;-70
2024/03/01 13:51:46;;;;;;;2.50;0.30;;;;;;;;;;5005313;28;20094;-70
2024/03/01 13:54:12;;;;;;;1.13;0.50;;;;;;;;;;4998586;28;20034;-70
2024/03/01 13:56:39;;;;;;;1.75;0.75;;;;;;;;;;4996841;28;20057;-70
2024/03/01 13:59:05;;;;;;;1.48;0.88;;;;;;;;;;4995698;28;20496;-70
2024/03/01 14:01:30;;;;;;;0.68;0.45;;;;;;;;;;5004753;28;20034;-69
2024/03/01 14:03:58;;;;;;;3.87;0.50;;;;;;;;;;5006508;28;20025;-70
2024/03/01 14:06:24;;;;;;;0.52;0.30;;;;;;;;;;5000881;28;20260;-70
2024/03/01 14:08:52;;;;;;;1.95;0.75;;;;;;;;;;4995878;28;20466;-70
2024/03/01 14:11:17;;;;;;;5.28;0.82;;;;;;;;;;4996996;28;20058;-70
2024/03/01 14:13:43;;;;;;;1.85;0.77;;;;;;;;;;5004328;28;20112;-70
2024/03/01 14:16:08;;;;;;;2.13;0.50;;;;;;;;;;5000952;28;20021;-70
2024/03/01 14:18:34;;;;;;;1.83;0.93;;;;;;;;;;5001962;28;20025;-69
2024/03/01 14:20:59;;;;;;;0.73;0.60;;;;;;;;;;4996663;28;20474;-70
2024/03/01 14:23:26;;;;;;;0.93;0.50;;;;;;;;;;4993582;28;20027;-69
2024/03/01 14:25:51;;;;;;;1.40;0.65;;;;;;;;;;4999010;28;20149;-69
2024/03/01 14:28:17;;;;;;;1.90;1.08;;;;;;;;;;4996615;28;20026;-70
2024/03/01 14:30:42;;;;;;;2.42;0.98;;;;;;;;;;4999102;28;20027;-69
2024/03/01 14:33:11;;;;;;;2.63;1.00;;;;;;;;;;4999741;28;20026;-70
2024/03/01 14:35:39;;;;;;;1.00;0.68;;;;;;;;;;5003713;28;20026;-68
2024/03/01 14:38:12;;;;;;;0.77;0.57;;;;;;;;;;5002147;28;20502;-70
2024/03/01 14:40:37;;;;;;;4.18;0.63;;;;;;;;;;5004826;28;20104;-70
2024/03/01 14:43:06;;;;;;;2.15;0.98;;;;;;;;;;4999251;28;20105;-70